Time;durP1;ratioP1;P1;durP2;ratioP2;P2;SDS_P1;SDS_P2;PMS_P1;PMS_P2;Temp;Humidity;BMP_temperature;BMP_pressure;BME280_temperature;BME280_humidity;BME280_pressure;Samples;Min_cycle;Max_cycle;Signal;HPM_P1;HPM_P2
2023/09/12 00:00:38;;;;;;;3.00;2.13;;;;;;;;;;5097317;28;20595;-74
2023/09/12 00:03:06;;;;;;;3.73;2.40;;;;;;;;;;5097472;28;20235;-74
2023/09/12 00:05:35;;;;;;;2.97;2.23;;;;;;;;;;5101278;28;20293;-74
2023/09/12 00:08:03;;;;;;;2.50;2.30;;;;;;;;;;5101326;28;20201;-74
2023/09/12 00:10:31;;;;;;;4.20;2.40;;;;;;;;;;5101079;28;20337;-74
2023/09/12 00:13:02;;;;;;;2.40;2.20;;;;;;;;;;5100864;28;20232;-74
2023/09/12 00:15:30;;;;;;;2.83;2.57;;;;;;;;;;5101118;28;20659;-74
2023/09/12 00:18:00;;;;;;;3.97;2.43;;;;;;;;;;5100989;28;20691;-74
2023/09/12 00:20:28;;;;;;;2.47;2.27;;;;;;;;;;5100822;28;20229;-74
2023/09/12 00:22:56;;;;;;;3.00;2.50;;;;;;;;;;5101118;28;20218;-74
2023/09/12 00:25:24;;;;;;;4.07;2.63;;;;;;;;;;5101098;28;20262;-74
2023/09/12 00:27:52;;;;;;;2.97;2.70;;;;;;;;;;5100532;28;20207;-74
2023/09/12 00:30:20;;;;;;;2.57;2.30;;;;;;;;;;5100957;28;20259;-74
2023/09/12 00:32:48;;;;;;;2.67;2.23;;;;;;;;;;5098719;28;20210;-74
2023/09/12 00:35:17;;;;;;;2.50;2.30;;;;;;;;;;5089791;28;20210;-74
2023/09/12 00:37:45;;;;;;;3.20;2.37;;;;;;;;;;5100704;28;20263;-74
2023/09/12 00:40:14;;;;;;;3.97;2.50;;;;;;;;;;5100620;28;20257;-75
2023/09/12 00:42:42;;;;;;;4.10;2.20;;;;;;;;;;5100474;28;20222;-73
2023/09/12 00:45:10;;;;;;;2.63;2.43;;;;;;;;;;5100533;28;20256;-73
2023/09/12 00:47:38;;;;;;;2.40;2.03;;;;;;;;;;5100333;28;20210;-74
2023/09/12 00:50:07;;;;;;;2.10;2.00;;;;;;;;;;5100451;28;20245;-74
2023/09/12 00:52:37;;;;;;;2.37;2.13;;;;;;;;;;5100264;28;20612;-73
2023/09/12 00:55:05;;;;;;;5.70;2.33;;;;;;;;;;5100274;28;20207;-73
2023/09/12 00:57:35;;;;;;;2.40;2.20;;;;;;;;;;5100061;28;20229;-74
2023/09/12 01:00:10;;;;;;;6.10;2.27;;;;;;;;;;5100147;28;20227;-73
2023/09/12 01:02:39;;;;;;;2.33;2.13;;;;;;;;;;5086955;28;20209;-74
2023/09/12 01:05:07;;;;;;;2.50;2.17;;;;;;;;;;5100025;28;20213;-74
2023/09/12 01:07:37;;;;;;;2.67;2.43;;;;;;;;;;5100436;28;20202;-74
2023/09/12 01:10:05;;;;;;;3.43;2.50;;;;;;;;;;5099801;28;20732;-74
2023/09/12 01:12:33;;;;;;;4.00;2.17;;;;;;;;;;5099922;28;20213;-74
2023/09/12 01:15:02;;;;;;;3.33;2.33;;;;;;;;;;5099339;28;20677;-74
2023/09/12 01:17:30;;;;;;;3.30;2.47;;;;;;;;;;5100144;28;20227;-74
2023/09/12 01:20:00;;;;;;;2.53;2.33;;;;;;;;;;5099693;28;20220;-74
2023/09/12 01:22:48;;;;;;;4.07;2.50;;;;;;;;;;5099871;28;20299;-74
2023/09/12 01:25:25;;;;;;;2.37;1.90;;;;;;;;;;5099981;28;20210;-73
2023/09/12 01:27:56;;;;;;;2.53;2.00;;;;;;;;;;5099597;28;20291;-73
2023/09/12 01:30:26;;;;;;;3.90;2.60;;;;;;;;;;5099570;28;20280;-74
2023/09/12 01:32:55;;;;;;;2.10;2.00;;;;;;;;;;5099504;28;20208;-74
2023/09/12 01:35:23;;;;;;;3.33;2.20;;;;;;;;;;5099590;28;20566;-74
2023/09/12 01:37:51;;;;;;;3.27;2.13;;;;;;;;;;5099577;28;20226;-74
2023/09/12 01:40:28;;;;;;;2.33;2.17;;;;;;;;;;5099316;28;20261;-74
2023/09/12 01:42:58;;;;;;;4.70;2.00;;;;;;;;;;5099413;28;20257;-74
2023/09/12 01:45:26;;;;;;;2.20;2.00;;;;;;;;;;5099501;28;20234;-74
2023/09/12 01:47:55;;;;;;;2.50;2.20;;;;;;;;;;5099329;28;20202;-74
2023/09/12 01:50:23;;;;;;;2.60;2.17;;;;;;;;;;5099186;28;20226;-74
2023/09/12 01:52:51;;;;;;;1.93;1.83;;;;;;;;;;5099117;28;20201;-74
2023/09/12 01:55:19;;;;;;;2.70;2.07;;;;;;;;;;5099389;28;20205;-73
2023/09/12 01:57:48;;;;;;;2.00;1.90;;;;;;;;;;5098584;28;20292;-74
2023/09/12 02:00:18;;;;;;;3.10;2.20;;;;;;;;;;5099261;28;20303;-74
2023/09/12 02:02:46;;;;;;;1.97;1.87;;;;;;;;;;5099014;28;20205;-74
2023/09/12 02:05:18;;;;;;;2.03;1.90;;;;;;;;;;5098931;28;20205;-74
2023/09/12 02:07:47;;;;;;;1.90;1.80;;;;;;;;;;5098862;28;20579;-74
2023/09/12 02:10:15;;;;;;;2.30;2.10;;;;;;;;;;5098960;28;20229;-74
2023/09/12 02:12:43;;;;;;;3.37;2.10;;;;;;;;;;5098567;28;20712;-74
2023/09/12 02:15:12;;;;;;;2.17;1.80;;;;;;;;;;5099054;28;20214;-73
2023/09/12 02:17:41;;;;;;;4.70;2.60;;;;;;;;;;5098620;28;20269;-74
2023/09/12 02:20:11;;;;;;;2.73;2.17;;;;;;;;;;5098911;28;20230;-74
2023/09/12 02:22:39;;;;;;;2.60;2.40;;;;;;;;;;5098839;28;20206;-74
2023/09/12 02:25:08;;;;;;;4.97;2.67;;;;;;;;;;5098705;28;20269;-74
2023/09/12 02:27:35;;;;;;;2.40;2.20;;;;;;;;;;5097567;28;20210;-74
2023/09/12 02:30:04;;;;;;;1.70;1.60;;;;;;;;;;5098481;28;20232;-74
2023/09/12 02:32:32;;;;;;;2.10;2.00;;;;;;;;;;5098695;28;20211;-74
2023/09/12 02:35:02;;;;;;;5.63;2.50;;;;;;;;;;5088311;28;20208;-73
2023/09/12 02:37:30;;;;;;;2.87;2.20;;;;;;;;;;5085282;28;20542;-74
2023/09/12 02:39:58;;;;;;;3.07;1.80;;;;;;;;;;5098237;28;20223;-74
2023/09/12 02:42:26;;;;;;;2.93;2.20;;;;;;;;;;5098438;28;20212;-74
2023/09/12 02:44:54;;;;;;;2.97;2.10;;;;;;;;;;5098255;28;20657;-74
2023/09/12 02:47:22;;;;;;;2.57;2.17;;;;;;;;;;5098507;28;20215;-73
2023/09/12 02:49:50;;;;;;;2.50;2.30;;;;;;;;;;5098048;28;20670;-74
2023/09/12 02:52:20;;;;;;;2.40;2.20;;;;;;;;;;5098192;28;20235;-75
2023/09/12 02:54:48;;;;;;;5.83;2.40;;;;;;;;;;5098186;28;20212;-74
2023/09/12 02:57:16;;;;;;;5.47;2.50;;;;;;;;;;5098126;28;20261;-72
2023/09/12 02:59:44;;;;;;;3.63;1.93;;;;;;;;;;5098139;28;20221;-73
2023/09/12 03:02:12;;;;;;;4.47;2.10;;;;;;;;;;5098370;28;20205;-74
2023/09/12 03:04:40;;;;;;;4.67;2.33;;;;;;;;;;5098252;28;20208;-74
2023/09/12 03:07:08;;;;;;;2.20;2.00;;;;;;;;;;5098280;28;20208;-74
2023/09/12 03:09:38;;;;;;;2.40;2.20;;;;;;;;;;5097970;28;20204;-73
2023/09/12 03:12:06;;;;;;;2.50;2.30;;;;;;;;;;5097843;28;20208;-73
2023/09/12 03:14:34;;;;;;;2.53;2.27;;;;;;;;;;5097842;28;20234;-74
2023/09/12 03:17:03;;;;;;;4.07;2.33;;;;;;;;;;5097822;28;20247;-74
2023/09/12 03:19:31;;;;;;;1.93;1.67;;;;;;;;;;5097707;28;20299;-74
2023/09/12 03:21:59;;;;;;;2.80;2.20;;;;;;;;;;5098004;28;20229;-75
2023/09/12 03:24:28;;;;;;;2.03;1.90;;;;;;;;;;5097644;28;20265;-74
2023/09/12 03:26:58;;;;;;;2.70;2.10;;;;;;;;;;5097475;28;20683;-74
2023/09/12 03:29:26;;;;;;;2.43;2.10;;;;;;;;;;5097804;28;20568;-74
2023/09/12 03:31:54;;;;;;;3.70;2.20;;;;;;;;;;5097609;28;20706;-74
2023/09/12 03:34:22;;;;;;;3.50;2.43;;;;;;;;;;5097749;28;20209;-74
2023/09/12 03:36:50;;;;;;;2.40;2.10;;;;;;;;;;5096625;28;20198;-73
2023/09/12 03:39:18;;;;;;;5.00;3.00;;;;;;;;;;5100099;28;20221;-72
2023/09/12 03:41:46;;;;;;;2.40;2.20;;;;;;;;;;5101531;28;20220;-75
2023/09/12 03:44:16;;;;;;;2.63;2.30;;;;;;;;;;5098960;28;20195;-74
2023/09/12 03:46:44;;;;;;;2.23;2.07;;;;;;;;;;5101463;28;20207;-73
2023/09/12 03:49:12;;;;;;;4.03;2.57;;;;;;;;;;5101607;28;20264;-75
2023/09/12 03:51:40;;;;;;;2.50;2.30;;;;;;;;;;5101110;28;20231;-74
2023/09/12 03:54:08;;;;;;;3.27;2.20;;;;;;;;;;5101490;28;20575;-74
2023/09/12 03:56:36;;;;;;;3.90;2.10;;;;;;;;;;5101438;28;20210;-75
2023/09/12 03:59:04;;;;;;;3.20;2.07;;;;;;;;;;5101357;28;20236;-74
2023/09/12 04:01:34;;;;;;;2.83;2.17;;;;;;;;;;5101573;28;20223;-74
2023/09/12 04:04:02;;;;;;;2.57;2.13;;;;;;;;;;5101328;28;20258;-73
2023/09/12 04:06:31;;;;;;;2.70;2.50;;;;;;;;;;5101529;28;20208;-75
2023/09/12 04:08:59;;;;;;;4.23;2.73;;;;;;;;;;5101056;28;20204;-74
2023/09/12 04:11:27;;;;;;;2.40;2.23;;;;;;;;;;5101209;28;20264;-75
2023/09/12 04:14:13;;;;;;;2.97;1.93;;;;;;;;;;5101468;28;20222;-75
2023/09/12 04:16:43;;;;;;;3.13;2.17;;;;;;;;;;5101226;28;20208;-74
2023/09/12 04:19:11;;;;;;;2.33;2.00;;;;;;;;;;5101236;28;20234;-75
2023/09/12 04:21:39;;;;;;;3.57;2.20;;;;;;;;;;5100873;28;20740;-74
2023/09/12 04:24:08;;;;;;;2.33;2.13;;;;;;;;;;5101079;28;20293;-74
2023/09/12 04:26:36;;;;;;;2.50;2.30;;;;;;;;;;5101211;28;20211;-74
2023/09/12 04:29:04;;;;;;;2.60;2.37;;;;;;;;;;5101076;28;20289;-74
2023/09/12 04:31:32;;;;;;;3.63;2.00;;;;;;;;;;5100627;28;20231;-74
2023/09/12 04:34:01;;;;;;;2.60;2.30;;;;;;;;;;5100702;28;20673;-74
2023/09/12 04:36:29;;;;;;;2.63;2.43;;;;;;;;;;5089966;28;20210;-74
2023/09/12 04:38:57;;;;;;;2.87;2.40;;;;;;;;;;5100477;28;20625;-74
2023/09/12 04:41:25;;;;;;;2.83;2.50;;;;;;;;;;5100098;28;20227;-74
2023/09/12 04:43:53;;;;;;;2.60;2.10;;;;;;;;;;5100832;28;20215;-74
2023/09/12 04:46:21;;;;;;;2.43;2.23;;;;;;;;;;5100430;28;20665;-74
2023/09/12 04:48:49;;;;;;;2.60;2.37;;;;;;;;;;5100493;28;20667;-74
2023/09/12 04:51:19;;;;;;;4.27;2.20;;;;;;;;;;5085847;28;20228;-74
2023/09/12 04:53:51;;;;;;;2.50;2.20;;;;;;;;;;5099814;28;20198;-74
2023/09/12 04:56:19;;;;;;;2.37;2.17;;;;;;;;;;5099923;28;20287;-73
2023/09/12 04:58:48;;;;;;;2.43;2.23;;;;;;;;;;5099378;28;20231;-74
2023/09/12 05:01:16;;;;;;;3.83;2.27;;;;;;;;;;5099717;28;20257;-74
2023/09/12 05:03:45;;;;;;;2.67;2.47;;;;;;;;;;5099050;28;20203;-74
2023/09/12 05:06:13;;;;;;;2.17;1.97;;;;;;;;;;5096995;28;20199;-74
2023/09/12 05:08:42;;;;;;;4.03;2.80;;;;;;;;;;5099706;28;20681;-75
2023/09/12 05:11:11;;;;;;;2.97;2.20;;;;;;;;;;5099853;28;20232;-74
2023/09/12 05:13:39;;;;;;;2.33;2.13;;;;;;;;;;5099806;28;20661;-75
2023/09/12 05:16:07;;;;;;;2.20;2.10;;;;;;;;;;5099987;28;20627;-75
2023/09/12 05:18:35;;;;;;;2.73;2.10;;;;;;;;;;5100079;28;20244;-74
2023/09/12 05:21:03;;;;;;;5.80;2.80;;;;;;;;;;5099866;28;20245;-74
2023/09/12 05:23:30;;;;;;;2.53;2.20;;;;;;;;;;5099488;28;20673;-75
2023/09/12 05:25:59;;;;;;;2.83;2.20;;;;;;;;;;5099718;28;20212;-68
2023/09/12 05:28:27;;;;;;;6.47;2.43;;;;;;;;;;5095124;28;20254;-69
2023/09/12 05:30:55;;;;;;;3.60;2.70;;;;;;;;;;5095584;28;20222;-69
2023/09/12 05:33:23;;;;;;;2.80;2.27;;;;;;;;;;5098033;28;20225;-68
2023/09/12 05:35:51;;;;;;;4.67;2.30;;;;;;;;;;5097721;28;20208;-68
2023/09/12 05:38:19;;;;;;;3.03;2.50;;;;;;;;;;5095926;28;20201;-69
2023/09/12 05:40:49;;;;;;;4.70;2.50;;;;;;;;;;5098823;28;20226;-69
2023/09/12 05:43:19;;;;;;;4.73;2.90;;;;;;;;;;5099395;28;20206;-68
2023/09/12 05:45:47;;;;;;;3.73;2.53;;;;;;;;;;5105714;28;20202;-68
2023/09/12 05:48:15;;;;;;;4.67;2.80;;;;;;;;;;5098866;28;20228;-68
2023/09/12 05:50:44;;;;;;;2.70;2.30;;;;;;;;;;5098872;28;20266;-67
2023/09/12 05:53:12;;;;;;;2.30;2.17;;;;;;;;;;5098651;28;20194;-68
2023/09/12 05:55:40;;;;;;;2.50;2.30;;;;;;;;;;5098748;28;20210;-68
2023/09/12 05:58:08;;;;;;;3.40;2.20;;;;;;;;;;5095158;28;20352;-67
2023/09/12 06:00:39;;;;;;;2.50;2.30;;;;;;;;;;5094151;28;20252;-68
2023/09/12 06:03:07;;;;;;;6.50;2.40;;;;;;;;;;5096867;28;20197;-68
2023/09/12 06:05:36;;;;;;;2.10;1.97;;;;;;;;;;5098846;28;20208;-67
2023/09/12 06:08:06;;;;;;;2.20;2.10;;;;;;;;;;5090230;28;20198;-67
2023/09/12 06:10:35;;;;;;;4.20;2.20;;;;;;;;;;5098705;28;20233;-68
2023/09/12 06:13:04;;;;;;;4.50;2.43;;;;;;;;;;5098574;28;20636;-66
2023/09/12 06:15:32;;;;;;;2.27;2.07;;;;;;;;;;5098193;28;20210;-68
2023/09/12 06:18:02;;;;;;;4.60;2.37;;;;;;;;;;5097587;28;20209;-68
2023/09/12 06:20:30;;;;;;;3.53;2.30;;;;;;;;;;5096252;28;20634;-67
2023/09/12 06:22:59;;;;;;;4.40;2.23;;;;;;;;;;5098365;28;20209;-67
2023/09/12 06:25:28;;;;;;;5.27;2.33;;;;;;;;;;5098545;28;20797;-67
2023/09/12 06:27:56;;;;;;;2.10;2.00;;;;;;;;;;5098299;28;20209;-67
2023/09/12 06:30:24;;;;;;;4.30;2.27;;;;;;;;;;5098385;28;20248;-67
2023/09/12 06:32:52;;;;;;;5.63;2.23;;;;;;;;;;5098266;28;20205;-67
2023/09/12 06:35:22;;;;;;;5.13;2.63;;;;;;;;;;5097997;28;20224;-67
2023/09/12 06:37:50;;;;;;;2.73;2.30;;;;;;;;;;5089789;28;20201;-67
2023/09/12 06:40:18;;;;;;;2.60;2.40;;;;;;;;;;5097797;28;20221;-67
2023/09/12 06:42:47;;;;;;;2.23;2.03;;;;;;;;;;5097870;28;20292;-67
2023/09/12 06:45:15;;;;;;;3.63;2.27;;;;;;;;;;5098175;28;20216;-67
2023/09/12 06:47:43;;;;;;;4.00;2.30;;;;;;;;;;5098390;28;20233;-67
2023/09/12 06:50:11;;;;;;;7.40;3.90;;;;;;;;;;5098122;28;20256;-67
2023/09/12 06:52:44;;;;;;;2.83;1.90;;;;;;;;;;5107354;28;20209;-67
2023/09/12 06:55:12;;;;;;;6.37;2.43;;;;;;;;;;5098754;28;20263;-67
2023/09/12 06:57:40;;;;;;;3.03;2.43;;;;;;;;;;5089253;28;20244;-67
2023/09/12 07:00:10;;;;;;;6.10;2.37;;;;;;;;;;5097594;28;20233;-67
2023/09/12 07:02:38;;;;;;;10.87;7.77;;;;;;;;;;5098059;28;20216;-67
2023/09/12 07:05:06;;;;;;;6.53;2.63;;;;;;;;;;5097706;28;20354;-67
2023/09/12 07:07:34;;;;;;;10.77;2.80;;;;;;;;;;5098072;28;20208;-66
2023/09/12 07:10:04;;;;;;;8.13;3.00;;;;;;;;;;5097208;28;20226;-67
2023/09/12 07:12:49;;;;;;;5.13;2.73;;;;;;;;;;5094544;28;20252;-66
2023/09/12 07:15:18;;;;;;;4.73;2.40;;;;;;;;;;5097806;28;20211;-66
2023/09/12 07:17:46;;;;;;;4.03;2.33;;;;;;;;;;5098179;28;20206;-67
2023/09/12 07:20:17;;;;;;;3.13;2.37;;;;;;;;;;5098058;28;20238;-67
2023/09/12 07:22:46;;;;;;;2.57;2.33;;;;;;;;;;5097876;28;20238;-67
2023/09/12 07:25:17;;;;;;;3.00;2.47;;;;;;;;;;5098093;28;20275;-67
2023/09/12 07:27:45;;;;;;;3.33;2.53;;;;;;;;;;5109649;28;20687;-67
2023/09/12 07:30:13;;;;;;;3.50;2.63;;;;;;;;;;5097787;28;20231;-68
2023/09/12 07:32:41;;;;;;;3.63;2.20;;;;;;;;;;5097867;28;20205;-67
2023/09/12 07:35:10;;;;;;;3.67;2.27;;;;;;;;;;5097468;28;20208;-68
2023/09/12 07:37:38;;;;;;;4.67;2.40;;;;;;;;;;5093329;28;20287;-67
2023/09/12 07:40:12;;;;;;;2.53;2.33;;;;;;;;;;5096848;28;20219;-67
2023/09/12 07:42:44;;;;;;;4.03;2.50;;;;;;;;;;5096404;28;20209;-67
2023/09/12 07:45:13;;;;;;;2.27;2.07;;;;;;;;;;5099348;28;20206;-67
2023/09/12 07:47:41;;;;;;;5.13;2.50;;;;;;;;;;5097460;28;20612;-67
2023/09/12 07:50:10;;;;;;;4.20;2.43;;;;;;;;;;5097171;28;20735;-67
2023/09/12 07:52:38;;;;;;;8.10;3.00;;;;;;;;;;5097595;28;20652;-67
2023/09/12 07:55:08;;;;;;;6.30;2.40;;;;;;;;;;5096720;28;20563;-67
2023/09/12 07:57:36;;;;;;;5.73;2.63;;;;;;;;;;5089903;28;20339;-67
2023/09/12 08:00:09;;;;;;;4.13;2.30;;;;;;;;;;5097846;28;20228;-67
2023/09/12 08:02:38;;;;;;;3.20;2.50;;;;;;;;;;5097200;28;20230;-67
2023/09/12 08:05:07;;;;;;;5.03;2.50;;;;;;;;;;5097294;28;20289;-67
2023/09/12 08:07:36;;;;;;;4.60;2.23;;;;;;;;;;5097107;28;20208;-67
2023/09/12 08:10:05;;;;;;;6.33;2.60;;;;;;;;;;5097060;28;20258;-67
2023/09/12 08:12:34;;;;;;;4.53;2.20;;;;;;;;;;5096899;28;20203;-66
2023/09/12 08:15:02;;;;;;;2.17;1.97;;;;;;;;;;5097172;28;20202;-67
2023/09/12 08:17:32;;;;;;;4.33;2.20;;;;;;;;;;5101153;28;20208;-67
2023/09/12 08:20:00;;;;;;;2.37;2.17;;;;;;;;;;5096522;28;20754;-67
2023/09/12 08:22:28;;;;;;;3.67;2.00;;;;;;;;;;5096813;28;20232;-67
2023/09/12 08:24:56;;;;;;;3.00;1.83;;;;;;;;;;5097930;28;20203;-68
2023/09/12 08:27:24;;;;;;;2.77;2.00;;;;;;;;;;5100322;28;20205;-68
2023/09/12 08:29:52;;;;;;;4.07;2.30;;;;;;;;;;5100323;28;20567;-68
2023/09/12 08:32:20;;;;;;;5.20;2.03;;;;;;;;;;5100470;28;20531;-67
2023/09/12 08:34:50;;;;;;;5.63;2.23;;;;;;;;;;5108161;28;20203;-67
2023/09/12 08:37:18;;;;;;;6.30;2.07;;;;;;;;;;5096898;28;20215;-68
2023/09/12 08:39:46;;;;;;;2.93;2.20;;;;;;;;;;5097026;28;20203;-66
2023/09/12 08:42:17;;;;;;;2.27;2.00;;;;;;;;;;5098618;28;20311;-67
2023/09/12 08:44:45;;;;;;;5.10;2.17;;;;;;;;;;5099288;28;20567;-66
2023/09/12 08:47:13;;;;;;;4.77;2.63;;;;;;;;;;5100848;28;20234;-68
2023/09/12 08:49:42;;;;;;;3.83;2.20;;;;;;;;;;5100422;28;20207;-69
2023/09/12 08:52:12;;;;;;;2.43;1.80;;;;;;;;;;5112883;28;20209;-68
2023/09/12 08:54:40;;;;;;;4.07;2.20;;;;;;;;;;5100379;28;20208;-67
2023/09/12 08:57:08;;;;;;;4.27;1.87;;;;;;;;;;5096647;28;20205;-68
2023/09/12 08:59:37;;;;;;;2.77;2.07;;;;;;;;;;5098631;28;20241;-68
2023/09/12 09:02:07;;;;;;;5.73;2.17;;;;;;;;;;5100043;28;20234;-68
2023/09/12 09:04:36;;;;;;;2.40;2.20;;;;;;;;;;5100253;28;20218;-68
2023/09/12 09:07:05;;;;;;;2.60;1.63;;;;;;;;;;5100045;28;20216;-68
2023/09/12 09:09:35;;;;;;;5.63;2.50;;;;;;;;;;5106157;28;20213;-68
2023/09/12 09:12:07;;;;;;;2.00;1.80;;;;;;;;;;5099572;28;20237;-68
2023/09/12 09:14:35;;;;;;;5.83;2.20;;;;;;;;;;5100042;28;20717;-68
2023/09/12 09:17:04;;;;;;;5.73;2.50;;;;;;;;;;5100055;28;20216;-67
2023/09/12 09:19:42;;;;;;;4.73;2.43;;;;;;;;;;5099738;28;20207;-66
2023/09/12 09:22:10;;;;;;;3.33;2.27;;;;;;;;;;5099888;28;20231;-66
2023/09/12 09:24:40;;;;;;;2.37;2.00;;;;;;;;;;5100203;28;20204;-66
2023/09/12 09:27:08;;;;;;;2.70;1.97;;;;;;;;;;5092879;28;20198;-66
2023/09/12 09:29:47;;;;;;;4.63;2.10;;;;;;;;;;5096559;28;20203;-67
2023/09/12 09:32:21;;;;;;;5.65;2.33;;;;;;;;;;5096171;28;20193;-68
2023/09/12 09:34:50;;;;;;;2.50;2.10;;;;;;;;;;5099264;28;20206;-68
2023/09/12 09:37:19;;;;;;;5.47;2.50;;;;;;;;;;5098394;28;20201;-67
2023/09/12 09:39:52;;;;;;;4.15;2.13;;;;;;;;;;5099052;28;20201;-69
2023/09/12 09:42:20;;;;;;;2.00;1.80;;;;;;;;;;5096796;28;20233;-70
2023/09/12 09:44:49;;;;;;;2.33;2.10;;;;;;;;;;5099011;28;20201;-70
2023/09/12 09:47:19;;;;;;;4.05;2.15;;;;;;;;;;5087483;28;20270;-71
2023/09/12 09:49:47;;;;;;;5.82;2.50;;;;;;;;;;5099449;28;20287;-70
2023/09/12 09:52:15;;;;;;;2.65;2.15;;;;;;;;;;5099389;28;20205;-70
2023/09/12 09:54:46;;;;;;;3.50;2.40;;;;;;;;;;5098988;28;20233;-70
2023/09/12 09:57:16;;;;;;;2.50;2.28;;;;;;;;;;5098630;28;20205;-71
2023/09/12 09:59:49;;;;;;;3.33;2.25;;;;;;;;;;5098776;28;20234;-72
2023/09/12 10:02:22;;;;;;;2.80;2.00;;;;;;;;;;5097619;28;20223;-71
2023/09/12 10:04:53;;;;;;;3.90;2.33;;;;;;;;;;5098373;28;20729;-71
2023/09/12 10:07:24;;;;;;;5.75;2.58;;;;;;;;;;5098667;28;20233;-71
2023/09/12 10:09:53;;;;;;;4.45;2.10;;;;;;;;;;5098464;28;20199;-69
2023/09/12 10:12:22;;;;;;;4.00;2.05;;;;;;;;;;5098492;28;20679;-70
2023/09/12 10:14:50;;;;;;;3.15;2.05;;;;;;;;;;5098839;28;20207;-71
2023/09/12 10:17:23;;;;;;;2.38;2.17;;;;;;;;;;5098992;28;20216;-73
2023/09/12 10:19:55;;;;;;;8.32;2.42;;;;;;;;;;5098804;28;20212;-69
2023/09/12 10:22:26;;;;;;;4.72;2.35;;;;;;;;;;5095992;28;20221;-71
2023/09/12 10:24:55;;;;;;;3.65;2.80;;;;;;;;;;5098414;28;20201;-73
2023/09/12 10:27:25;;;;;;;6.55;2.78;;;;;;;;;;5084941;28;20219;-73
2023/09/12 10:29:53;;;;;;;3.13;2.72;;;;;;;;;;5097976;28;20258;-72
2023/09/12 10:32:22;;;;;;;3.35;2.20;;;;;;;;;;5098324;28;20246;-73
2023/09/12 10:34:50;;;;;;;2.60;2.35;;;;;;;;;;5098405;28;20205;-73
2023/09/12 10:37:20;;;;;;;3.67;2.22;;;;;;;;;;5098361;28;20215;-73
2023/09/12 10:39:48;;;;;;;2.55;2.35;;;;;;;;;;5095349;28;20212;-73
2023/09/12 10:42:17;;;;;;;3.28;2.25;;;;;;;;;;5086673;28;20225;-71
2023/09/12 10:44:47;;;;;;;4.40;2.35;;;;;;;;;;5097850;28;20216;-72
2023/09/12 10:47:15;;;;;;;2.50;2.30;;;;;;;;;;5098352;28;20212;-72
2023/09/12 10:49:44;;;;;;;5.95;2.80;;;;;;;;;;5096966;28;20209;-71
2023/09/12 10:52:24;;;;;;;3.13;2.13;;;;;;;;;;5096151;28;20560;-69
2023/09/12 10:54:52;;;;;;;8.57;2.70;;;;;;;;;;5097914;28;20674;-72
2023/09/12 10:57:21;;;;;;;2.75;2.15;;;;;;;;;;5097224;28;20288;-72
2023/09/12 11:00:10;;;;;;;4.25;2.42;;;;;;;;;;5097687;28;20215;-72
2023/09/12 11:02:40;;;;;;;2.58;2.25;;;;;;;;;;5097432;28;20224;-72
2023/09/12 11:05:28;;;;;;;2.80;2.35;;;;;;;;;;5098194;28;20205;-72
2023/09/12 11:07:57;;;;;;;2.28;2.08;;;;;;;;;;5097813;28;20215;-72
2023/09/12 11:10:26;;;;;;;3.42;2.17;;;;;;;;;;5097683;28;20251;-72
2023/09/12 11:12:54;;;;;;;4.03;2.25;;;;;;;;;;5097967;28;20201;-72
2023/09/12 11:15:23;;;;;;;2.60;2.28;;;;;;;;;;5097922;28;20209;-72
2023/09/12 11:18:01;;;;;;;2.88;2.38;;;;;;;;;;5098160;28;20294;-72
2023/09/12 11:20:44;;;;;;;2.72;2.28;;;;;;;;;;5097697;28;20224;-72
2023/09/12 11:23:12;;;;;;;3.88;2.20;;;;;;;;;;5087831;28;20218;-70
2023/09/12 11:25:40;;;;;;;3.13;2.40;;;;;;;;;;5097095;28;20201;-70
2023/09/12 11:28:08;;;;;;;3.28;2.35;;;;;;;;;;5098008;28;20209;-72
2023/09/12 11:30:36;;;;;;;3.80;2.33;;;;;;;;;;5097878;28;20270;-72
2023/09/12 11:33:11;;;;;;;4.80;3.65;;;;;;;;;;5097448;28;20224;-72
2023/09/12 11:35:40;;;;;;;3.00;2.47;;;;;;;;;;5097729;28;20211;-72
2023/09/12 11:38:11;;;;;;;3.30;2.22;;;;;;;;;;5097507;28;20212;-71
2023/09/12 11:40:46;;;;;;;2.38;2.20;;;;;;;;;;5097282;28;20228;-70
2023/09/12 11:43:23;;;;;;;2.45;2.25;;;;;;;;;;5097634;28;20220;-70
2023/09/12 11:45:52;;;;;;;2.72;2.53;;;;;;;;;;5097937;28;20209;-71
2023/09/12 11:48:22;;;;;;;2.67;2.47;;;;;;;;;;5097438;28;20223;-71
2023/09/12 11:50:50;;;;;;;5.03;2.97;;;;;;;;;;5097725;28;20237;-73
2023/09/12 11:53:20;;;;;;;3.83;2.72;;;;;;;;;;5086188;28;20224;-73
2023/09/12 11:55:51;;;;;;;4.10;2.08;;;;;;;;;;5082241;28;20209;-74
2023/09/12 11:58:19;;;;;;;3.22;2.50;;;;;;;;;;5094681;28;20696;-74
2023/09/12 12:00:49;;;;;;;2.70;2.50;;;;;;;;;;5100002;28;20581;-71
2023/09/12 12:03:17;;;;;;;5.18;4.03;;;;;;;;;;5100827;28;20229;-72
2023/09/12 12:05:47;;;;;;;2.90;2.50;;;;;;;;;;5101293;28;20277;-71
2023/09/12 12:08:16;;;;;;;7.65;4.32;;;;;;;;;;5100554;28;20236;-72
2023/09/12 12:10:50;;;;;;;2.50;2.30;;;;;;;;;;5100006;28;20221;-72
2023/09/12 12:13:18;;;;;;;2.90;2.60;;;;;;;;;;5098908;28;20200;-73
2023/09/12 12:15:46;;;;;;;6.80;2.47;;;;;;;;;;5100519;28;20198;-72
2023/09/12 12:18:15;;;;;;;7.63;3.08;;;;;;;;;;5100674;28;20602;-70
2023/09/12 12:20:43;;;;;;;3.08;2.72;;;;;;;;;;5098204;28;20248;-72
2023/09/12 12:23:13;;;;;;;4.05;2.60;;;;;;;;;;5100459;28;20585;-72
2023/09/12 12:25:41;;;;;;;3.03;2.75;;;;;;;;;;5099764;28;20213;-72
2023/09/12 12:28:09;;;;;;;3.60;2.67;;;;;;;;;;5100820;28;20198;-72
2023/09/12 12:30:37;;;;;;;4.05;2.60;;;;;;;;;;5100368;28;20726;-72
2023/09/12 12:33:08;;;;;;;4.45;2.83;;;;;;;;;;5086222;28;20193;-70
2023/09/12 12:36:02;;;;;;;3.08;2.60;;;;;;;;;;5097745;28;20217;-74
2023/09/12 12:38:34;;;;;;;3.47;2.70;;;;;;;;;;5100989;28;20209;-74
2023/09/12 12:41:04;;;;;;;4.78;2.63;;;;;;;;;;5100424;28;20221;-73
2023/09/12 12:43:32;;;;;;;6.00;3.17;;;;;;;;;;5100125;28;20789;-74
2023/09/12 12:46:00;;;;;;;4.15;2.90;;;;;;;;;;5100540;28;20259;-74
2023/09/12 12:48:32;;;;;;;2.55;2.35;;;;;;;;;;5100717;28;20258;-74
2023/09/12 12:51:00;;;;;;;3.35;2.30;;;;;;;;;;5100509;28;20278;-74
2023/09/12 12:53:39;;;;;;;3.15;2.85;;;;;;;;;;5101078;28;20201;-72
2023/09/12 12:56:12;;;;;;;3.42;2.40;;;;;;;;;;5100493;28;20255;-72
2023/09/12 12:58:45;;;;;;;2.80;2.60;;;;;;;;;;5100007;28;20294;-72
2023/09/12 13:01:13;;;;;;;3.53;2.70;;;;;;;;;;5100354;28;20253;-72
2023/09/12 13:03:41;;;;;;;3.60;2.50;;;;;;;;;;5099979;28;20225;-74
2023/09/12 13:06:13;;;;;;;3.28;2.97;;;;;;;;;;5100473;28;20239;-71
2023/09/12 13:08:43;;;;;;;4.07;2.47;;;;;;;;;;5091825;28;20209;-73
2023/09/12 13:11:11;;;;;;;2.88;2.67;;;;;;;;;;5093683;28;20229;-74
2023/09/12 13:13:43;;;;;;;4.10;2.50;;;;;;;;;;5089941;28;20284;-72
2023/09/12 13:16:14;;;;;;;6.22;3.13;;;;;;;;;;5100099;28;20215;-74
2023/09/12 13:18:42;;;;;;;4.82;2.70;;;;;;;;;;5100121;28;20236;-73
2023/09/12 13:21:10;;;;;;;4.22;2.90;;;;;;;;;;5099939;28;20308;-73
2023/09/12 13:23:39;;;;;;;3.03;2.83;;;;;;;;;;5099902;28;20290;-74
2023/09/12 13:26:09;;;;;;;3.17;2.88;;;;;;;;;;5099642;28;20217;-72
2023/09/12 13:28:38;;;;;;;3.75;2.50;;;;;;;;;;5100094;28;20232;-72
2023/09/12 13:31:06;;;;;;;3.38;2.38;;;;;;;;;;5099754;28;20275;-73
2023/09/12 13:33:34;;;;;;;2.88;2.67;;;;;;;;;;5099892;28;20233;-72
2023/09/12 13:36:03;;;;;;;6.47;3.03;;;;;;;;;;5099884;28;20202;-73
2023/09/12 13:38:31;;;;;;;2.80;2.60;;;;;;;;;;5099441;28;20205;-73
2023/09/12 13:40:59;;;;;;;2.83;2.53;;;;;;;;;;5099395;28;20230;-72
2023/09/12 13:43:29;;;;;;;7.53;3.00;;;;;;;;;;5099569;28;20209;-73
2023/09/12 13:45:57;;;;;;;4.43;3.22;;;;;;;;;;5099491;28;20591;-72
2023/09/12 13:48:25;;;;;;;3.22;2.78;;;;;;;;;;5099558;28;20237;-73
2023/09/12 13:50:53;;;;;;;2.83;2.50;;;;;;;;;;5099548;28;20233;-72
2023/09/12 13:53:21;;;;;;;4.38;2.88;;;;;;;;;;5099054;28;20229;-73
2023/09/12 13:55:49;;;;;;;3.53;2.90;;;;;;;;;;5098789;28;20613;-72
2023/09/12 13:58:17;;;;;;;3.53;2.25;;;;;;;;;;5098838;28;20235;-72
2023/09/12 14:00:47;;;;;;;4.85;2.90;;;;;;;;;;5098956;28;20225;-71
2023/09/12 14:03:15;;;;;;;3.33;2.53;;;;;;;;;;5098889;28;20736;-73
2023/09/12 14:05:44;;;;;;;3.08;2.50;;;;;;;;;;5099217;28;20235;-73
2023/09/12 14:08:12;;;;;;;2.90;2.60;;;;;;;;;;5098963;28;20209;-72
2023/09/12 14:10:41;;;;;;;2.90;2.63;;;;;;;;;;5098649;28;20248;-72
2023/09/12 14:13:09;;;;;;;5.07;2.35;;;;;;;;;;5098657;28;20212;-72
2023/09/12 14:15:50;;;;;;;6.03;2.70;;;;;;;;;;5099046;28;20201;-71
2023/09/12 14:18:21;;;;;;;3.08;2.40;;;;;;;;;;5098546;28;20205;-72
2023/09/12 14:20:51;;;;;;;2.80;2.53;;;;;;;;;;5098586;28;20225;-71
2023/09/12 14:23:20;;;;;;;2.92;2.60;;;;;;;;;;5098693;28;20208;-72
2023/09/12 14:25:49;;;;;;;3.50;2.97;;;;;;;;;;5098502;28;20300;-72
2023/09/12 14:28:17;;;;;;;4.03;2.72;;;;;;;;;;5098340;28;20201;-71
2023/09/12 14:30:46;;;;;;;2.72;2.53;;;;;;;;;;5098669;28;20236;-72
2023/09/12 14:33:17;;;;;;;4.03;2.78;;;;;;;;;;5098278;28;20205;-71
2023/09/12 14:35:45;;;;;;;6.00;2.80;;;;;;;;;;5089718;28;20197;-73
2023/09/12 14:38:13;;;;;;;2.40;2.30;;;;;;;;;;5089673;28;20205;-72
2023/09/12 14:40:41;;;;;;;3.22;2.80;;;;;;;;;;5094990;28;20225;-73
2023/09/12 14:43:13;;;;;;;3.00;2.70;;;;;;;;;;5093690;28;20254;-73
2023/09/12 14:45:41;;;;;;;4.03;2.92;;;;;;;;;;5097975;28;20313;-72
2023/09/12 14:48:09;;;;;;;3.80;2.55;;;;;;;;;;5098260;28;20213;-73
2023/09/12 14:50:39;;;;;;;6.95;2.88;;;;;;;;;;5095796;28;20230;-71
2023/09/12 14:53:11;;;;;;;3.92;3.17;;;;;;;;;;5090635;28;20232;-73
2023/09/12 14:55:39;;;;;;;3.78;2.78;;;;;;;;;;5097667;28;21001;-71